Terminal Aerodrome Forecast
Issued by NWS Green Bay, WI

Home | Current Version | Previous Version | Text Only | Print | Product List | Glossary On
Versions: 1 2 3 4 5 6 7 8 9 10 11 12 13 14 15 16 17 18 19 20 21 22 23 24 25 26 27 28 29 30 31 32 33 34
000
FTUS43 KGRB 110500 RRA
TAFGRB
TAF
KGRB 110541Z 1106/1206 18005KT P6SM SCT070 BKN250
      TEMPO 1106/1109 BKN070
     FM111600 19010G18KT P6SM SCT040 BKN150
     FM120000 17008KT P6SM VCSH SCT040 BKN090=

USA.gov is the U.S. government's official web portal to all federal, state and local government web resources and services.